PWSweather.com
Personal Weather Stations
Station Observations
WATERF01
WaterfordIE

WaterfordIE

Lat: 52.2412507, Lon: -7.1414691

Elevation: 65

Station Type: Davis Vantage Vue

www.waterfordweather.com

High Low Average
Temperature 71.5°F21.9°C 60.1°F15.6°C 64.7°F18.2°C
Dew Point 63.5°F17.5°C 57.5°F14.2°C 60.7°F15.9°C
Winds 9.2 mph 14.8 kmh 1.2 mph 1.9 kmh 5.0 mph WSW8.0 kmh WSW
Wind Gusts 19.6 mph31.5 kmh 2.3 mph3.7 kmh 10.0 mph16.1 kmh
Humidity 91% 76% 87%
Pressure 30.19 in1022.4 mb 30.02 in1016.6 mb -
Precipitation 0.01 in0.3 mm - -
Hour Temp Dew Point Humidity Winds Wind Gusts Pressure Precip Precip Rate Daily Precip Total
12:00 AM 61.8°F16.6°C 59.1°F15.1°C 91% 6.9 mph WSW11.1 kmh WSW 11.5 mph18.5 kmh 30.02 in1016.6 mb - 0.00 in0.0 mm 0.00 in0.0 mm
12:10 AM 61.7°F16.5°C 59.0°F15.0°C 91% 5.8 mph W9.3 kmh W 11.5 mph18.5 kmh 30.02 in1016.6 mb - 0.00 in0.0 mm 0.00 in0.0 mm
12:20 AM 61.7°F16.5°C 59.0°F15.0°C 91% 6.9 mph SW11.1 kmh SW 12.7 mph20.4 kmh 30.02 in1016.6 mb - 0.00 in0.0 mm 0.00 in0.0 mm
12:30 AM 61.8°F16.6°C 59.1°F15.1°C 91% 5.8 mph SW9.3 kmh SW 9.2 mph14.8 kmh 30.02 in1016.6 mb - 0.00 in0.0 mm 0.00 in0.0 mm
12:40 AM 61.7°F16.5°C 59.0°F15.0°C 91% 5.8 mph WNW9.3 kmh WNW 11.5 mph18.5 kmh 30.03 in1016.9 mb - 0.00 in0.0 mm 0.00 in0.0 mm
12:50 AM 61.7°F16.5°C 59.0°F15.0°C 91% 5.8 mph SW9.3 kmh SW 11.5 mph18.5 kmh 30.03 in1016.9 mb - 0.00 in0.0 mm 0.00 in0.0 mm
01:00 AM 61.5°F16.4°C 58.8°F14.9°C 91% 5.8 mph W9.3 kmh W 11.5 mph18.5 kmh 30.03 in1016.9 mb - 0.00 in0.0 mm 0.00 in0.0 mm
01:10 AM 61.3°F16.3°C 58.7°F14.8°C 91% 5.8 mph ESE9.3 kmh ESE 12.7 mph20.4 kmh 30.02 in1016.6 mb - 0.00 in0.0 mm 0.00 in0.0 mm
01:20 AM 61.2°F16.2°C 58.6°F14.8°C 91% 8.1 mph SW13.0 kmh SW 15.0 mph24.1 kmh 30.03 in1016.9 mb - 0.00 in0.0 mm 0.00 in0.0 mm
01:30 AM 61.1°F16.2°C 58.5°F14.7°C 91% 6.9 mph W11.1 kmh W 16.1 mph25.9 kmh 30.03 in1016.9 mb - 0.00 in0.0 mm 0.00 in0.0 mm
01:40 AM 61.1°F16.2°C 58.4°F14.7°C 91% 8.1 mph WSW13.0 kmh WSW 15.0 mph24.1 kmh 30.03 in1016.9 mb - 0.00 in0.0 mm 0.00 in0.0 mm
01:50 AM 60.9°F16.1°C 58.3°F14.6°C 91% 6.9 mph WSW11.1 kmh WSW 11.5 mph18.5 kmh 30.03 in1016.9 mb - 0.01 in0.3 mm 0.01 in0.3 mm
02:00 AM 60.7°F15.9°C 58.1°F14.5°C 91% 9.2 mph W14.8 kmh W 15.0 mph24.1 kmh 30.03 in1016.9 mb - 0.01 in0.3 mm 0.01 in0.3 mm
02:10 AM 60.6°F15.9°C 58.0°F14.4°C 91% 8.1 mph SW13.0 kmh SW 13.8 mph22.2 kmh 30.03 in1016.9 mb - 0.01 in0.3 mm 0.01 in0.3 mm
02:20 AM 60.6°F15.9°C 58.0°F14.4°C 91% 4.6 mph SSE7.4 kmh SSE 9.2 mph14.8 kmh 30.04 in1017.3 mb - 0.01 in0.3 mm 0.01 in0.3 mm
02:30 AM 60.4°F15.8°C 57.8°F14.3°C 91% 6.9 mph NW11.1 kmh NW 11.5 mph18.5 kmh 30.04 in1017.3 mb - 0.01 in0.3 mm 0.01 in0.3 mm
02:40 AM 60.4°F15.8°C 57.8°F14.3°C 91% 6.9 mph W11.1 kmh W 13.8 mph22.2 kmh 30.04 in1017.3 mb - 0.01 in0.3 mm 0.01 in0.3 mm
02:50 AM 60.4°F15.8°C 57.8°F14.3°C 91% 5.8 mph SW9.3 kmh SW 6.9 mph11.1 kmh 30.04 in1017.3 mb - 0.00 in0.0 mm 0.01 in0.3 mm
03:00 AM 60.3°F15.7°C 57.7°F14.3°C 91% 3.5 mph WSW5.6 kmh WSW 8.1 mph13.0 kmh 30.05 in1017.6 mb - 0.00 in0.0 mm 0.01 in0.3 mm
03:10 AM 60.1°F15.6°C 57.5°F14.2°C 91% 2.3 mph W3.7 kmh W 5.8 mph9.3 kmh 30.05 in1017.6 mb - 0.00 in0.0 mm 0.01 in0.3 mm
03:20 AM 60.1°F15.6°C 57.5°F14.2°C 91% 1.2 mph WSW1.9 kmh WSW 4.6 mph7.4 kmh 30.05 in1017.6 mb - 0.00 in0.0 mm 0.01 in0.3 mm
03:30 AM 60.3°F15.7°C 57.7°F14.3°C 91% 2.3 mph S3.7 kmh S 4.6 mph7.4 kmh 30.05 in1017.6 mb - 0.00 in0.0 mm 0.01 in0.3 mm
03:40 AM 60.4°F15.8°C 57.8°F14.3°C 91% 3.5 mph WSW5.6 kmh WSW 5.8 mph9.3 kmh 30.05 in1017.6 mb - 0.00 in0.0 mm 0.01 in0.3 mm
03:50 AM 60.3°F15.7°C 57.7°F14.3°C 91% 4.6 mph SW7.4 kmh SW 8.1 mph13.0 kmh 30.05 in1017.6 mb - 0.00 in0.0 mm 0.01 in0.3 mm
04:00 AM 60.3°F15.7°C 57.7°F14.3°C 91% 3.5 mph WSW5.6 kmh WSW 11.5 mph18.5 kmh 30.06 in1017.9 mb - 0.00 in0.0 mm 0.01 in0.3 mm
04:10 AM 60.2°F15.7°C 57.6°F14.2°C 91% 4.6 mph WSW7.4 kmh WSW 8.1 mph13.0 kmh 30.06 in1017.9 mb - 0.00 in0.0 mm 0.01 in0.3 mm
04:20 AM 60.3°F15.7°C 57.7°F14.3°C 91% 4.6 mph SW7.4 kmh SW 11.5 mph18.5 kmh 30.06 in1017.9 mb - 0.00 in0.0 mm 0.01 in0.3 mm
04:30 AM 60.2°F15.7°C 57.6°F14.2°C 91% 4.6 mph SSW7.4 kmh SSW 5.8 mph9.3 kmh 30.07 in1018.3 mb - 0.00 in0.0 mm 0.01 in0.3 mm
04:40 AM 60.3°F15.7°C 57.7°F14.3°C 91% 5.8 mph WSW9.3 kmh WSW 8.1 mph13.0 kmh 30.07 in1018.3 mb - 0.00 in0.0 mm 0.01 in0.3 mm
04:50 AM 60.2°F15.7°C 57.6°F14.2°C 91% 5.8 mph SW9.3 kmh SW 8.1 mph13.0 kmh 30.08 in1018.6 mb - 0.00 in0.0 mm 0.01 in0.3 mm
05:00 AM 60.1°F15.6°C 57.5°F14.2°C 91% 4.6 mph SSW7.4 kmh SSW 6.9 mph11.1 kmh 30.07 in1018.3 mb - 0.00 in0.0 mm 0.01 in0.3 mm
05:10 AM 60.1°F15.6°C 57.5°F14.2°C 91% 3.5 mph WSW5.6 kmh WSW 6.9 mph11.1 kmh 30.09 in1019.0 mb - 0.00 in0.0 mm 0.01 in0.3 mm
05:20 AM 60.3°F15.7°C 57.7°F14.3°C 91% 1.2 mph SSW1.9 kmh SSW 5.8 mph9.3 kmh 30.09 in1019.0 mb - 0.00 in0.0 mm 0.01 in0.3 mm
05:30 AM 60.4°F15.8°C 57.8°F14.3°C 91% 4.6 mph WSW7.4 kmh WSW 8.1 mph13.0 kmh 30.09 in1019.0 mb - 0.00 in0.0 mm 0.01 in0.3 mm
05:40 AM 60.5°F15.8°C 57.9°F14.4°C 91% 2.3 mph SSW3.7 kmh SSW 5.8 mph9.3 kmh 30.09 in1019.0 mb - 0.00 in0.0 mm 0.01 in0.3 mm
05:50 AM 61.2°F16.2°C 58.5°F14.7°C 91% 2.3 mph WSW3.7 kmh WSW 4.6 mph7.4 kmh 30.10 in1019.3 mb - 0.00 in0.0 mm 0.01 in0.3 mm
06:00 AM 61.5°F16.4°C 58.8°F14.9°C 91% 3.5 mph SSW5.6 kmh SSW 5.8 mph9.3 kmh 30.10 in1019.3 mb - 0.00 in0.0 mm 0.01 in0.3 mm
06:10 AM 61.1°F16.2°C 58.5°F14.7°C 91% 5.8 mph S9.3 kmh S 6.9 mph11.1 kmh 30.10 in1019.3 mb - 0.00 in0.0 mm 0.01 in0.3 mm
06:20 AM 61.1°F16.2°C 58.5°F14.7°C 91% 1.2 mph S1.9 kmh S 2.3 mph3.7 kmh 30.11 in1019.6 mb - 0.00 in0.0 mm 0.01 in0.3 mm
06:30 AM 61.1°F16.2°C 58.4°F14.7°C 91% 4.6 mph SSW7.4 kmh SSW 8.1 mph13.0 kmh 30.11 in1019.6 mb - 0.00 in0.0 mm 0.01 in0.3 mm
06:40 AM 61.3°F16.3°C 58.7°F14.8°C 91% 1.2 mph SW1.9 kmh SW 5.8 mph9.3 kmh 30.11 in1019.6 mb - 0.00 in0.0 mm 0.01 in0.3 mm
06:50 AM 61.8°F16.6°C 59.1°F15.1°C 91% 2.3 mph WSW3.7 kmh WSW 5.8 mph9.3 kmh 30.11 in1019.6 mb - 0.00 in0.0 mm 0.01 in0.3 mm
07:00 AM 62.4°F16.9°C 59.7°F15.4°C 91% 2.3 mph SW3.7 kmh SW 4.6 mph7.4 kmh 30.11 in1019.6 mb - 0.00 in0.0 mm 0.01 in0.3 mm
07:10 AM 62.6°F17.0°C 59.9°F15.5°C 91% 2.3 mph S3.7 kmh S 4.6 mph7.4 kmh 30.11 in1019.6 mb - 0.00 in0.0 mm 0.01 in0.3 mm
07:20 AM 62.6°F17.0°C 59.9°F15.5°C 91% 3.5 mph NW5.6 kmh NW 5.8 mph9.3 kmh 30.11 in1019.6 mb - 0.00 in0.0 mm 0.01 in0.3 mm
07:30 AM 62.8°F17.1°C 60.1°F15.6°C 91% 3.5 mph WSW5.6 kmh WSW 9.2 mph14.8 kmh 30.12 in1020.0 mb - 0.00 in0.0 mm 0.01 in0.3 mm
07:40 AM 63.0°F17.2°C 60.3°F15.7°C 91% 4.6 mph NW7.4 kmh NW 9.2 mph14.8 kmh 30.12 in1020.0 mb - 0.00 in0.0 mm 0.01 in0.3 mm
07:50 AM 63.7°F17.6°C 61.0°F16.1°C 91% 5.8 mph W9.3 kmh W 11.5 mph18.5 kmh 30.12 in1020.0 mb - 0.00 in0.0 mm 0.01 in0.3 mm
08:00 AM 63.6°F17.6°C 60.9°F16.1°C 91% 5.8 mph WSW9.3 kmh WSW 9.2 mph14.8 kmh 30.12 in1020.0 mb - 0.00 in0.0 mm 0.01 in0.3 mm
08:10 AM 64.5°F18.1°C 61.8°F16.6°C 91% 4.6 mph WSW7.4 kmh WSW 8.1 mph13.0 kmh 30.12 in1020.0 mb - 0.00 in0.0 mm 0.01 in0.3 mm
08:20 AM 64.6°F18.1°C 61.6°F16.4°C 90% 4.6 mph W7.4 kmh W 8.1 mph13.0 kmh 30.12 in1020.0 mb - 0.00 in0.0 mm 0.01 in0.3 mm
08:30 AM 64.6°F18.1°C 61.6°F16.4°C 90% 5.8 mph SSW9.3 kmh SSW 8.1 mph13.0 kmh 30.13 in1020.3 mb - 0.00 in0.0 mm 0.01 in0.3 mm
08:40 AM 65.1°F18.4°C 62.1°F16.7°C 90% 4.6 mph SW7.4 kmh SW 11.5 mph18.5 kmh 30.13 in1020.3 mb - 0.00 in0.0 mm 0.01 in0.3 mm
08:50 AM 65.4°F18.6°C 61.8°F16.6°C 88% 5.8 mph W9.3 kmh W 8.1 mph13.0 kmh 30.13 in1020.3 mb - 0.00 in0.0 mm 0.01 in0.3 mm
09:00 AM 65.3°F18.5°C 61.7°F16.5°C 88% 5.8 mph WSW9.3 kmh WSW 9.2 mph14.8 kmh 30.13 in1020.3 mb - 0.00 in0.0 mm 0.01 in0.3 mm
09:10 AM 65.2°F18.4°C 61.2°F16.2°C 87% 4.6 mph SW7.4 kmh SW 9.2 mph14.8 kmh 30.13 in1020.3 mb - 0.00 in0.0 mm 0.01 in0.3 mm
09:20 AM 65.6°F18.7°C 61.3°F16.3°C 86% 3.5 mph SW5.6 kmh SW 8.1 mph13.0 kmh 30.13 in1020.3 mb - 0.00 in0.0 mm 0.01 in0.3 mm
09:30 AM 66.3°F19.1°C 62.0°F16.7°C 86% 3.5 mph SW5.6 kmh SW 8.1 mph13.0 kmh 30.13 in1020.3 mb - 0.00 in0.0 mm 0.01 in0.3 mm
09:40 AM 67.5°F19.7°C 62.5°F16.9°C 84% 5.8 mph W9.3 kmh W 9.2 mph14.8 kmh 30.13 in1020.3 mb - 0.00 in0.0 mm 0.01 in0.3 mm
09:50 AM 68.1°F20.1°C 62.4°F16.9°C 82% 6.9 mph WSW11.1 kmh WSW 9.2 mph14.8 kmh 30.13 in1020.3 mb - 0.00 in0.0 mm 0.01 in0.3 mm
10:00 AM 67.9°F19.9°C 62.2°F16.8°C 82% 6.9 mph SW11.1 kmh SW 11.5 mph18.5 kmh 30.13 in1020.3 mb - 0.00 in0.0 mm 0.01 in0.3 mm
10:10 AM 68.0°F20.0°C 62.3°F16.8°C 82% 4.6 mph WSW7.4 kmh WSW 6.9 mph11.1 kmh 30.13 in1020.3 mb - 0.00 in0.0 mm 0.01 in0.3 mm
10:20 AM 67.5°F19.7°C 61.8°F16.6°C 82% 5.8 mph WSW9.3 kmh WSW 10.4 mph16.7 kmh 30.14 in1020.7 mb - 0.00 in0.0 mm 0.01 in0.3 mm
10:30 AM 67.6°F19.8°C 62.2°F16.8°C 83% 4.6 mph SW7.4 kmh SW 11.5 mph18.5 kmh 30.14 in1020.7 mb - 0.00 in0.0 mm 0.01 in0.3 mm
10:40 AM 67.8°F19.9°C 62.4°F16.9°C 83% 4.6 mph W7.4 kmh W 11.5 mph18.5 kmh 30.14 in1020.7 mb - 0.00 in0.0 mm 0.01 in0.3 mm
10:50 AM 67.7°F19.8°C 62.0°F16.7°C 82% 6.9 mph NNW11.1 kmh NNW 11.5 mph18.5 kmh 30.14 in1020.7 mb - 0.00 in0.0 mm 0.01 in0.3 mm
11:00 AM 67.7°F19.8°C 62.0°F16.7°C 82% 6.9 mph W11.1 kmh W 9.2 mph14.8 kmh 30.14 in1020.7 mb - 0.00 in0.0 mm 0.01 in0.3 mm
11:10 AM 68.0°F20.0°C 62.3°F16.8°C 82% 6.9 mph WSW11.1 kmh WSW 11.5 mph18.5 kmh 30.14 in1020.7 mb - 0.00 in0.0 mm 0.01 in0.3 mm
11:20 AM 68.1°F20.1°C 62.4°F16.9°C 82% 5.8 mph WNW9.3 kmh WNW 12.7 mph20.4 kmh 30.14 in1020.7 mb - 0.00 in0.0 mm 0.01 in0.3 mm
11:30 AM 68.1°F20.1°C 62.4°F16.9°C 82% 5.8 mph W9.3 kmh W 11.5 mph18.5 kmh 30.14 in1020.7 mb - 0.00 in0.0 mm 0.01 in0.3 mm
11:40 AM 68.4°F20.2°C 62.7°F17.1°C 82% 6.9 mph WSW11.1 kmh WSW 11.5 mph18.5 kmh 30.14 in1020.7 mb - 0.00 in0.0 mm 0.01 in0.3 mm
11:50 AM 68.5°F20.3°C 62.8°F17.1°C 82% 5.8 mph WNW9.3 kmh WNW 9.2 mph14.8 kmh 30.14 in1020.7 mb - 0.00 in0.0 mm 0.01 in0.3 mm
12:00 PM 68.0°F20.0°C 62.7°F17.1°C 83% 5.8 mph WNW9.3 kmh WNW 11.5 mph18.5 kmh 30.14 in1020.7 mb - 0.00 in0.0 mm 0.01 in0.3 mm
12:10 PM 67.9°F19.9°C 62.5°F16.9°C 83% 5.8 mph SW9.3 kmh SW 9.2 mph14.8 kmh 30.15 in1021.0 mb - 0.00 in0.0 mm 0.01 in0.3 mm
12:20 PM 67.7°F19.8°C 62.3°F16.8°C 83% 6.9 mph WSW11.1 kmh WSW 12.7 mph20.4 kmh 30.15 in1021.0 mb - 0.00 in0.0 mm 0.01 in0.3 mm
12:30 PM 67.8°F19.9°C 62.5°F16.9°C 83% 6.9 mph W11.1 kmh W 9.2 mph14.8 kmh 30.15 in1021.0 mb - 0.00 in0.0 mm 0.01 in0.3 mm
12:40 PM 68.2°F20.1°C 62.8°F17.1°C 83% 6.9 mph W11.1 kmh W 11.5 mph18.5 kmh 30.15 in1021.0 mb - 0.00 in0.0 mm 0.01 in0.3 mm
12:50 PM 68.8°F20.4°C 63.1°F17.3°C 82% 8.1 mph WNW13.0 kmh WNW 12.7 mph20.4 kmh 30.15 in1021.0 mb - 0.00 in0.0 mm 0.01 in0.3 mm
01:00 PM 68.7°F20.4°C 62.3°F16.8°C 80% 6.9 mph SW11.1 kmh SW 9.2 mph14.8 kmh 30.16 in1021.3 mb - 0.00 in0.0 mm 0.01 in0.3 mm
01:10 PM 68.5°F20.3°C 62.1°F16.7°C 80% 9.2 mph SW14.8 kmh SW 13.8 mph22.2 kmh 30.15 in1021.0 mb - 0.00 in0.0 mm 0.01 in0.3 mm
01:20 PM 68.7°F20.4°C 62.3°F16.8°C 80% 6.9 mph W11.1 kmh W 8.1 mph13.0 kmh 30.15 in1021.0 mb - 0.00 in0.0 mm 0.01 in0.3 mm
01:30 PM 68.7°F20.4°C 62.6°F17.0°C 81% 5.8 mph SW9.3 kmh SW 8.1 mph13.0 kmh 30.16 in1021.3 mb - 0.00 in0.0 mm 0.01 in0.3 mm
01:40 PM 69.0°F20.6°C 62.6°F17.0°C 80% 6.9 mph SW11.1 kmh SW 11.5 mph18.5 kmh 30.16 in1021.3 mb - 0.00 in0.0 mm 0.01 in0.3 mm
01:50 PM 69.3°F20.7°C 62.5°F16.9°C 79% 9.2 mph W14.8 kmh W 12.7 mph20.4 kmh 30.16 in1021.3 mb - 0.00 in0.0 mm 0.01 in0.3 mm
02:00 PM 69.8°F21.0°C 63.0°F17.2°C 79% 8.1 mph SW13.0 kmh SW 13.8 mph22.2 kmh 30.15 in1021.0 mb - 0.00 in0.0 mm 0.01 in0.3 mm
02:10 PM 70.1°F21.2°C 62.9°F17.2°C 78% 9.2 mph SW14.8 kmh SW 13.8 mph22.2 kmh 30.15 in1021.0 mb - 0.00 in0.0 mm 0.01 in0.3 mm
02:20 PM 70.5°F21.4°C 63.4°F17.4°C 78% 6.9 mph NNW11.1 kmh NNW 8.1 mph13.0 kmh 30.15 in1021.0 mb - 0.00 in0.0 mm 0.01 in0.3 mm
02:30 PM 71.1°F21.7°C 63.5°F17.5°C 77% 9.2 mph WSW14.8 kmh WSW 16.1 mph25.9 kmh 30.16 in1021.3 mb - 0.00 in0.0 mm 0.01 in0.3 mm
02:40 PM 71.5°F21.9°C 63.5°F17.5°C 76% 6.9 mph SW11.1 kmh SW 15.0 mph24.1 kmh 30.16 in1021.3 mb - 0.00 in0.0 mm 0.01 in0.3 mm
02:50 PM 71.0°F21.7°C 63.4°F17.4°C 77% 9.2 mph W14.8 kmh W 19.6 mph31.5 kmh 30.15 in1021.0 mb - 0.00 in0.0 mm 0.01 in0.3 mm
03:00 PM 70.7°F21.5°C 63.1°F17.3°C 77% 9.2 mph WSW14.8 kmh WSW 13.8 mph22.2 kmh 30.16 in1021.3 mb - 0.00 in0.0 mm 0.01 in0.3 mm
03:10 PM 70.6°F21.4°C 63.4°F17.4°C 78% 6.9 mph SW11.1 kmh SW 16.1 mph25.9 kmh 30.16 in1021.3 mb - 0.00 in0.0 mm 0.01 in0.3 mm
03:20 PM 69.3°F20.7°C 62.8°F17.1°C 80% 9.2 mph WNW14.8 kmh WNW 16.1 mph25.9 kmh 30.17 in1021.7 mb - 0.00 in0.0 mm 0.01 in0.3 mm
03:30 PM 68.3°F20.2°C 62.6°F17.0°C 82% 4.6 mph WNW7.4 kmh WNW 8.1 mph13.0 kmh 30.17 in1021.7 mb - 0.00 in0.0 mm 0.01 in0.3 mm
03:40 PM 68.0°F20.0°C 62.6°F17.0°C 83% 5.8 mph W9.3 kmh W 8.1 mph13.0 kmh 30.17 in1021.7 mb - 0.00 in0.0 mm 0.01 in0.3 mm
03:50 PM 68.0°F20.0°C 63.0°F17.2°C 84% 4.6 mph W7.4 kmh W 8.1 mph13.0 kmh 30.17 in1021.7 mb - 0.00 in0.0 mm 0.01 in0.3 mm
04:00 PM 68.1°F20.1°C 63.1°F17.3°C 84% 8.1 mph WNW13.0 kmh WNW 11.5 mph18.5 kmh 30.16 in1021.3 mb - 0.00 in0.0 mm 0.01 in0.3 mm
04:10 PM 67.9°F19.9°C 62.9°F17.2°C 84% 6.9 mph WSW11.1 kmh WSW 9.2 mph14.8 kmh 30.16 in1021.3 mb - 0.00 in0.0 mm 0.01 in0.3 mm
04:20 PM 67.4°F19.7°C 62.7°F17.1°C 85% 3.5 mph N5.6 kmh N 5.8 mph9.3 kmh 30.17 in1021.7 mb - 0.00 in0.0 mm 0.01 in0.3 mm
04:30 PM 67.0°F19.4°C 62.4°F16.9°C 85% 6.9 mph WSW11.1 kmh WSW 12.7 mph20.4 kmh 30.16 in1021.3 mb - 0.00 in0.0 mm 0.01 in0.3 mm
04:40 PM 66.6°F19.2°C 62.3°F16.8°C 86% 4.6 mph W7.4 kmh W 9.2 mph14.8 kmh 30.16 in1021.3 mb - 0.00 in0.0 mm 0.01 in0.3 mm
04:50 PM 66.5°F19.2°C 62.2°F16.8°C 86% 3.5 mph WSW5.6 kmh WSW 6.9 mph11.1 kmh 30.16 in1021.3 mb - 0.00 in0.0 mm 0.01 in0.3 mm
05:00 PM 66.3°F19.1°C 62.0°F16.7°C 86% 6.9 mph N11.1 kmh N 11.5 mph18.5 kmh 30.16 in1021.3 mb - 0.00 in0.0 mm 0.01 in0.3 mm
05:10 PM 66.3°F19.1°C 62.3°F16.8°C 87% 5.8 mph WNW9.3 kmh WNW 11.5 mph18.5 kmh 30.16 in1021.3 mb - 0.00 in0.0 mm 0.01 in0.3 mm
05:20 PM 66.4°F19.1°C 62.4°F16.9°C 87% 6.9 mph W11.1 kmh W 12.7 mph20.4 kmh 30.16 in1021.3 mb - 0.00 in0.0 mm 0.01 in0.3 mm
05:30 PM 66.6°F19.2°C 62.7°F17.1°C 87% 5.8 mph WSW9.3 kmh WSW 11.5 mph18.5 kmh 30.17 in1021.7 mb - 0.00 in0.0 mm 0.01 in0.3 mm
05:40 PM 66.6°F19.2°C 62.3°F16.8°C 86% 8.1 mph SSW13.0 kmh SSW 15.0 mph24.1 kmh 30.17 in1021.7 mb - 0.00 in0.0 mm 0.01 in0.3 mm
05:50 PM 66.4°F19.1°C 62.4°F16.9°C 87% 4.6 mph W7.4 kmh W 6.9 mph11.1 kmh 30.17 in1021.7 mb - 0.00 in0.0 mm 0.01 in0.3 mm
06:00 PM 66.3°F19.1°C 62.3°F16.8°C 87% 5.8 mph WNW9.3 kmh WNW 11.5 mph18.5 kmh 30.16 in1021.3 mb - 0.00 in0.0 mm 0.01 in0.3 mm
06:10 PM 66.2°F19.0°C 62.2°F16.8°C 87% 5.8 mph NW9.3 kmh NW 9.2 mph14.8 kmh 30.16 in1021.3 mb - 0.00 in0.0 mm 0.01 in0.3 mm
06:20 PM 65.9°F18.8°C 61.9°F16.6°C 87% 4.6 mph W7.4 kmh W 8.1 mph13.0 kmh 30.16 in1021.3 mb - 0.00 in0.0 mm 0.01 in0.3 mm
06:30 PM 65.9°F18.8°C 61.9°F16.6°C 87% 4.6 mph SW7.4 kmh SW 9.2 mph14.8 kmh 30.17 in1021.7 mb - 0.00 in0.0 mm 0.01 in0.3 mm
06:40 PM 65.8°F18.8°C 61.8°F16.6°C 87% 6.9 mph WNW11.1 kmh WNW 11.5 mph18.5 kmh 30.16 in1021.3 mb - 0.00 in0.0 mm 0.01 in0.3 mm
06:50 PM 65.6°F18.7°C 61.6°F16.4°C 87% 5.8 mph W9.3 kmh W 9.2 mph14.8 kmh 30.16 in1021.3 mb - 0.00 in0.0 mm 0.01 in0.3 mm
07:00 PM 65.3°F18.5°C 61.7°F16.5°C 88% 6.9 mph S11.1 kmh S 11.5 mph18.5 kmh 30.16 in1021.3 mb - 0.00 in0.0 mm 0.01 in0.3 mm
07:10 PM 65.2°F18.4°C 61.6°F16.4°C 88% 5.8 mph WSW9.3 kmh WSW 12.7 mph20.4 kmh 30.17 in1021.7 mb - 0.00 in0.0 mm 0.01 in0.3 mm
07:20 PM 65.1°F18.4°C 61.4°F16.3°C 88% 5.8 mph WSW9.3 kmh WSW 8.1 mph13.0 kmh 30.17 in1021.7 mb - 0.00 in0.0 mm 0.01 in0.3 mm
07:30 PM 65.0°F18.3°C 61.4°F16.3°C 88% 5.8 mph WSW9.3 kmh WSW 11.5 mph18.5 kmh 30.17 in1021.7 mb - 0.00 in0.0 mm 0.01 in0.3 mm
07:40 PM 65.0°F18.3°C 61.3°F16.3°C 88% 4.6 mph WSW7.4 kmh WSW 8.1 mph13.0 kmh 30.18 in1022.0 mb - 0.00 in0.0 mm 0.01 in0.3 mm
07:50 PM 64.9°F18.3°C 61.3°F16.3°C 88% 4.6 mph SSW7.4 kmh SSW 6.9 mph11.1 kmh 30.17 in1021.7 mb - 0.00 in0.0 mm 0.01 in0.3 mm
08:00 PM 64.8°F18.2°C 61.2°F16.2°C 88% 5.8 mph WNW9.3 kmh WNW 9.2 mph14.8 kmh 30.18 in1022.0 mb - 0.00 in0.0 mm 0.01 in0.3 mm
08:10 PM 64.8°F18.2°C 61.5°F16.4°C 89% 3.5 mph WSW5.6 kmh WSW 6.9 mph11.1 kmh 30.18 in1022.0 mb - 0.00 in0.0 mm 0.01 in0.3 mm
08:20 PM 64.6°F18.1°C 61.3°F16.3°C 89% 4.6 mph WSW7.4 kmh WSW 9.2 mph14.8 kmh 30.18 in1022.0 mb - 0.00 in0.0 mm 0.01 in0.3 mm
08:30 PM 64.3°F17.9°C 61.0°F16.1°C 89% 4.6 mph W7.4 kmh W 8.1 mph13.0 kmh 30.19 in1022.4 mb - 0.00 in0.0 mm 0.01 in0.3 mm
08:40 PM 64.2°F17.9°C 60.9°F16.1°C 89% 4.6 mph SW7.4 kmh SW 8.1 mph13.0 kmh 30.19 in1022.4 mb - 0.00 in0.0 mm 0.01 in0.3 mm
08:50 PM 64.0°F17.8°C 60.7°F15.9°C 89% 4.6 mph SW7.4 kmh SW 8.1 mph13.0 kmh 30.18 in1022.0 mb - 0.00 in0.0 mm 0.01 in0.3 mm
09:00 PM 64.0°F17.8°C 60.7°F15.9°C 89% 5.8 mph SW9.3 kmh SW 8.1 mph13.0 kmh 30.18 in1022.0 mb - 0.00 in0.0 mm 0.01 in0.3 mm
09:10 PM 63.9°F17.7°C 60.6°F15.9°C 89% 3.5 mph WNW5.6 kmh WNW 6.9 mph11.1 kmh 30.19 in1022.4 mb - 0.00 in0.0 mm 0.01 in0.3 mm
09:20 PM 63.9°F17.7°C 60.6°F15.9°C 89% 3.5 mph SW5.6 kmh SW 5.8 mph9.3 kmh 30.19 in1022.4 mb - 0.00 in0.0 mm 0.01 in0.3 mm
09:30 PM 63.8°F17.7°C 60.5°F15.8°C 89% 4.6 mph WSW7.4 kmh WSW 6.9 mph11.1 kmh 30.19 in1022.4 mb - 0.00 in0.0 mm 0.01 in0.3 mm
09:40 PM 63.7°F17.6°C 60.4°F15.8°C 89% 3.5 mph WSW5.6 kmh WSW 5.8 mph9.3 kmh 30.19 in1022.4 mb - 0.00 in0.0 mm 0.01 in0.3 mm
09:50 PM 63.7°F17.6°C 60.4°F15.8°C 89% 4.6 mph WSW7.4 kmh WSW 6.9 mph11.1 kmh 30.19 in1022.4 mb - 0.00 in0.0 mm 0.01 in0.3 mm
10:00 PM 63.7°F17.6°C 60.4°F15.8°C 89% 3.5 mph SW5.6 kmh SW 5.8 mph9.3 kmh 30.19 in1022.4 mb - 0.00 in0.0 mm 0.01 in0.3 mm
10:10 PM 63.6°F17.6°C 60.3°F15.7°C 89% 2.3 mph WSW3.7 kmh WSW 5.8 mph9.3 kmh 30.19 in1022.4 mb - 0.00 in0.0 mm 0.01 in0.3 mm
10:20 PM 63.5°F17.5°C 60.2°F15.7°C 89% 3.5 mph SW5.6 kmh SW 6.9 mph11.1 kmh 30.19 in1022.4 mb - 0.00 in0.0 mm 0.01 in0.3 mm
10:30 PM 63.5°F17.5°C 60.2°F15.7°C 89% 4.6 mph WSW7.4 kmh WSW 8.1 mph13.0 kmh 30.19 in1022.4 mb - 0.00 in0.0 mm 0.01 in0.3 mm
10:40 PM 63.4°F17.4°C 60.1°F15.6°C 89% 5.8 mph W9.3 kmh W 9.2 mph14.8 kmh 30.18 in1022.0 mb - 0.00 in0.0 mm 0.01 in0.3 mm
10:50 PM 63.4°F17.4°C 60.4°F15.8°C 90% 4.6 mph W7.4 kmh W 10.4 mph16.7 kmh 30.18 in1022.0 mb - 0.00 in0.0 mm 0.01 in0.3 mm
11:00 PM 63.5°F17.5°C 60.5°F15.8°C 90% 4.6 mph WSW7.4 kmh WSW 6.9 mph11.1 kmh 30.19 in1022.4 mb - 0.00 in0.0 mm 0.06 in1.5 mm
11:10 PM 63.5°F17.5°C 60.5°F15.8°C 90% 4.6 mph W7.4 kmh W 8.1 mph13.0 kmh 30.19 in1022.4 mb - 0.00 in0.0 mm 0.06 in1.5 mm
11:20 PM 63.5°F17.5°C 60.5°F15.8°C 90% 4.6 mph WSW7.4 kmh WSW 8.1 mph13.0 kmh 30.19 in1022.4 mb - 0.00 in0.0 mm 0.06 in1.5 mm
11:30 PM 63.5°F17.5°C 60.5°F15.8°C 90% 4.6 mph WSW7.4 kmh WSW 6.9 mph11.1 kmh 30.19 in1022.4 mb - 0.00 in0.0 mm 0.06 in1.5 mm
11:40 PM 63.5°F17.5°C 60.5°F15.8°C 90% 2.3 mph SW3.7 kmh SW 6.9 mph11.1 kmh 30.19 in1022.4 mb - 0.00 in0.0 mm 0.06 in1.5 mm
11:50 PM 63.4°F17.4°C 60.4°F15.8°C 90% 3.5 mph SW5.6 kmh SW 5.8 mph9.3 kmh 30.19 in1022.4 mb - 0.00 in0.0 mm 0.06 in1.5 mm